Time;durP1;ratioP1;P1;durP2;ratioP2;P2;SDS_P1;SDS_P2;PMS_P1;PMS_P2;Temp;Humidity;BMP_temperature;BMP_pressure;BME280_temperature;BME280_humidity;BME280_pressure;Samples;Min_cycle;Max_cycle;Signal;HPM_P1;HPM_P2
2021/10/08 00:02:06;;;;;;;27.45;11.75;;;10.20;99.90;;;;;;5018073;28;20021;-93
2021/10/08 00:04:35;;;;;;;9.23;3.85;;;10.00;99.90;;;;;;5017738;28;20033;-93
2021/10/08 00:07:00;;;;;;;5.20;3.22;;;10.00;99.90;;;;;;5018497;28;20033;-94
2021/10/08 00:09:29;;;;;;;5.95;3.38;;;9.90;99.90;;;;;;5018278;28;20075;-92
2021/10/08 00:11:56;;;;;;;5.80;3.90;;;10.10;99.90;;;;;;5018429;28;20025;-92
2021/10/08 00:14:23;;;;;;;8.18;4.25;;;10.20;99.90;;;;;;5017813;28;20030;-93
2021/10/08 00:16:49;;;;;;;6.03;3.45;;;9.90;99.90;;;;;;5037148;28;20481;-92
2021/10/08 00:19:15;;;;;;;5.38;3.10;;;10.20;99.90;;;;;;5024862;28;20025;-93
2021/10/08 00:21:41;;;;;;;10.57;3.67;;;10.10;99.90;;;;;;5025569;28;20257;-93
2021/10/08 00:24:07;;;;;;;5.95;2.90;;;10.00;99.90;;;;;;5033649;28;20048;-92
2021/10/08 00:26:32;;;;;;;6.45;2.88;;;9.70;99.90;;;;;;5034037;28;20017;-91
2021/10/08 00:28:58;;;;;;;6.40;3.20;;;9.90;99.90;;;;;;5021004;28;20100;-91
2021/10/08 00:31:24;;;;;;;5.53;3.15;;;9.90;99.90;;;;;;5019133;28;20547;-92
2021/10/08 00:33:50;;;;;;;5.47;2.85;;;10.00;99.90;;;;;;5039356;28;20032;-93
2021/10/08 00:36:15;;;;;;;3.60;2.65;;;10.00;99.90;;;;;;5021346;28;20036;-92
2021/10/08 00:38:42;;;;;;;9.32;3.20;;;9.70;99.90;;;;;;5021634;28;20033;-93
2021/10/08 00:41:09;;;;;;;4.50;2.80;;;9.60;99.90;;;;;;5022168;28;20025;-93
2021/10/08 00:43:34;;;;;;;6.25;2.58;;;9.40;99.90;;;;;;5021591;28;20028;-92
2021/10/08 00:46:01;;;;;;;3.92;2.50;;;9.50;99.90;;;;;;5020990;28;20116;-92
2021/10/08 00:48:27;;;;;;;4.72;2.60;;;9.60;99.90;;;;;;5022270;28;20128;-92
2021/10/08 00:50:53;;;;;;;4.70;2.50;;;9.70;99.90;;;;;;5039337;28;20493;-92
2021/10/08 00:53:19;;;;;;;3.97;2.50;;;9.90;99.90;;;;;;5022043;28;20037;-93
2021/10/08 00:55:48;;;;;;;3.75;2.50;;;9.90;99.90;;;;;;5021699;28;20033;-93
2021/10/08 00:58:15;;;;;;;4.55;2.72;;;10.10;99.90;;;;;;5022064;28;20029;-92
2021/10/08 01:00:43;;;;;;;3.85;2.58;;;10.30;99.90;;;;;;5021832;28;20048;-93
2021/10/08 01:03:10;;;;;;;4.00;2.60;;;10.30;99.90;;;;;;5021805;28;20472;-93
2021/10/08 01:05:37;;;;;;;3.53;2.60;;;10.00;99.90;;;;;;5021289;28;20017;-93
2021/10/08 01:08:04;;;;;;;3.45;2.22;;;9.80;99.90;;;;;;5020504;28;20041;-92
2021/10/08 01:10:30;;;;;;;6.72;2.72;;;9.70;99.90;;;;;;5019788;28;20025;-93
2021/10/08 01:12:56;;;;;;;4.75;2.75;;;9.50;99.90;;;;;;5020079;28;20036;-92
2021/10/08 01:15:22;;;;;;;3.90;2.28;;;9.50;99.90;;;;;;5020902;28;20033;-91
2021/10/08 01:17:54;;;;;;;5.45;2.58;;;9.80;99.90;;;;;;5020472;28;20033;-92
2021/10/08 01:20:21;;;;;;;3.33;1.92;;;9.60;99.90;;;;;;5020402;28;20018;-93
2021/10/08 01:22:47;;;;;;;3.95;2.40;;;9.50;99.90;;;;;;5019816;28;20025;-92
2021/10/08 01:25:13;;;;;;;2.90;2.10;;;9.70;99.90;;;;;;5020918;28;20120;-92
2021/10/08 01:27:41;;;;;;;4.00;2.30;;;9.70;99.90;;;;;;5020408;28;20061;-92
2021/10/08 01:30:08;;;;;;;4.60;2.65;;;9.90;99.90;;;;;;5020039;28;20034;-93
2021/10/08 01:32:34;;;;;;;11.02;2.60;;;9.70;99.90;;;;;;5019981;28;20485;-92
2021/10/08 01:35:00;;;;;;;3.50;2.00;;;9.70;99.90;;;;;;5019946;28;20022;-92
2021/10/08 01:37:26;;;;;;;7.88;2.65;;;9.80;99.90;;;;;;5019788;28;20399;-92
2021/10/08 01:39:52;;;;;;;4.55;2.40;;;9.60;99.90;;;;;;5019830;28;20029;-93
2021/10/08 01:42:18;;;;;;;4.90;2.40;;;9.60;99.90;;;;;;5020261;28;20113;-93
2021/10/08 01:44:44;;;;;;;4.88;2.72;;;9.80;99.90;;;;;;5020027;28;20029;-91
2021/10/08 01:47:10;;;;;;;3.85;1.77;;;9.60;99.90;;;;;;5020549;28;20025;-92
2021/10/08 01:49:36;;;;;;;4.32;2.40;;;9.50;99.90;;;;;;5022873;28;20132;-94
2021/10/08 01:52:04;;;;;;;5.07;2.00;;;9.50;99.90;;;;;;5021585;28;20029;-94
2021/10/08 01:54:30;;;;;;;3.80;2.88;;;9.90;99.90;;;;;;5023594;28;20050;-94
2021/10/08 01:56:56;;;;;;;2.70;2.10;;;9.80;99.90;;;;;;5020427;28;20044;-92
2021/10/08 01:59:22;;;;;;;5.47;2.50;;;9.90;99.90;;;;;;5021666;28;20032;-93
2021/10/08 02:01:48;;;;;;;6.15;2.35;;;9.70;99.90;;;;;;5022127;28;20541;-93
2021/10/08 02:04:13;;;;;;;4.82;2.80;;;9.40;99.90;;;;;;5024058;28;20064;-92
2021/10/08 02:06:39;;;;;;;3.80;2.72;;;9.40;99.90;;;;;;5023291;28;20113;-93
2021/10/08 02:09:06;;;;;;;3.15;2.28;;;9.50;99.90;;;;;;5022449;28;20028;-94
2021/10/08 02:11:32;;;;;;;7.15;2.17;;;9.60;99.90;;;;;;5021467;28;20029;-93
2021/10/08 02:13:59;;;;;;;2.83;2.47;;;9.50;99.90;;;;;;5022160;28;20021;-92
2021/10/08 02:16:25;;;;;;;3.78;2.40;;;9.50;99.90;;;;;;5022771;28;20053;-94
2021/10/08 02:18:52;;;;;;;3.10;2.13;;;9.40;99.90;;;;;;5022929;28;20025;-93
2021/10/08 02:21:20;;;;;;;4.18;2.47;;;9.20;99.90;;;;;;5023424;28;20021;-93
2021/10/08 02:23:46;;;;;;;7.25;2.40;;;9.30;99.90;;;;;;5023033;28;20103;-94
2021/10/08 02:26:12;;;;;;;4.28;3.00;;;9.50;99.90;;;;;;5021160;28;20053;-94
2021/10/08 02:28:38;;;;;;;3.53;3.00;;;9.20;99.90;;;;;;5021540;28;20029;-92
2021/10/08 02:31:04;;;;;;;7.38;2.78;;;9.00;99.90;;;;;;5027373;28;20033;-93
2021/10/08 02:33:30;;;;;;;4.63;2.65;;;8.90;99.90;;;;;;5028660;28;20032;-93
2021/10/08 02:35:56;;;;;;;4.35;3.00;;;9.00;99.90;;;;;;5032939;28;20032;-93
2021/10/08 02:38:22;;;;;;;3.42;2.40;;;9.40;99.90;;;;;;5035765;28;20468;-94
2021/10/08 02:40:48;;;;;;;6.55;2.50;;;9.20;99.90;;;;;;5030994;28;20060;-92
2021/10/08 02:43:14;;;;;;;3.35;2.00;;;9.10;99.90;;;;;;5024384;28;20172;-92
2021/10/08 02:45:41;;;;;;;4.15;2.83;;;9.20;99.90;;;;;;5023664;28;20025;-94
2021/10/08 02:48:06;;;;;;;6.07;2.90;;;9.10;99.90;;;;;;5022372;28;20477;-93
2021/10/08 02:50:33;;;;;;;7.68;2.20;;;9.10;99.90;;;;;;5021323;28;20026;-94
2021/10/08 02:52:59;;;;;;;4.10;2.13;;;9.10;99.90;;;;;;5005260;28;20090;-94
2021/10/08 02:55:24;;;;;;;4.78;2.53;;;9.20;99.90;;;;;;5020691;28;20511;-93
2021/10/08 02:57:50;;;;;;;4.13;2.30;;;9.10;99.90;;;;;;5022054;28;20026;-94
2021/10/08 03:00:17;;;;;;;3.88;2.58;;;9.00;99.90;;;;;;5023007;28;20054;-93
2021/10/08 03:02:44;;;;;;;3.53;2.65;;;9.00;99.90;;;;;;5039899;28;20030;-94
2021/10/08 03:05:10;;;;;;;4.40;2.80;;;9.10;99.90;;;;;;5022401;28;20093;-94
2021/10/08 03:07:36;;;;;;;5.65;2.88;;;8.70;99.90;;;;;;5022304;28;20029;-95
2021/10/08 03:10:03;;;;;;;4.47;2.55;;;8.80;99.90;;;;;;5020556;28;20037;-94
2021/10/08 03:12:28;;;;;;;3.15;2.85;;;8.80;99.90;;;;;;5021119;28;20021;-93
2021/10/08 03:14:54;;;;;;;8.48;2.80;;;8.80;99.90;;;;;;5021323;28;20026;-93
2021/10/08 03:17:20;;;;;;;2.80;2.20;;;8.70;99.90;;;;;;5022597;28;20022;-93
2021/10/08 03:19:45;;;;;;;3.33;1.95;;;8.80;99.90;;;;;;5020630;28;20555;-94
2021/10/08 03:22:11;;;;;;;6.18;3.05;;;9.00;99.90;;;;;;5022881;28;20021;-93
2021/10/08 03:24:37;;;;;;;3.35;2.22;;;9.00;99.90;;;;;;5022297;28;20030;-95
2021/10/08 03:27:03;;;;;;;5.28;2.42;;;8.90;99.90;;;;;;5021155;28;20512;-93
2021/10/08 03:29:29;;;;;;;3.13;2.80;;;8.80;99.90;;;;;;5019197;28;20025;-93
2021/10/08 03:31:55;;;;;;;3.70;2.30;;;8.60;99.90;;;;;;5019715;28;20026;-93
2021/10/08 03:34:21;;;;;;;3.47;2.53;;;8.50;99.90;;;;;;5021461;28;20029;-93
2021/10/08 03:36:50;;;;;;;3.75;2.83;;;8.60;99.90;;;;;;5021961;28;20064;-93
2021/10/08 03:39:21;;;;;;;4.47;2.95;;;8.70;99.90;;;;;;5021529;28;20028;-93
2021/10/08 03:41:47;;;;;;;5.38;2.78;;;8.60;99.90;;;;;;5025010;28;20025;-93
2021/10/08 03:44:14;;;;;;;6.32;2.45;;;8.60;99.90;;;;;;5006620;28;20041;-94
2021/10/08 03:46:48;;;;;;;5.97;3.22;;;8.70;99.90;;;;;;5023985;28;20029;-94
2021/10/08 03:49:15;;;;;;;;;;;8.60;99.90;;;;;;5023846;28;20018;-95
2021/10/08 03:51:43;;;;;;;5.97;2.65;;;8.50;99.90;;;;;;5022780;28;19905;-94
2021/10/08 03:54:10;;;;;;;5.25;3.10;;;8.30;99.90;;;;;;5038072;28;20049;-93
2021/10/08 03:56:38;;;;;;;4.75;3.03;;;8.40;99.90;;;;;;5038249;28;20029;-93
2021/10/08 03:59:04;;;;;;;3.45;2.63;;;8.30;99.90;;;;;;5020680;28;20503;-94
2021/10/08 04:01:30;;;;;;;3.25;2.17;;;8.50;99.90;;;;;;5020487;28;20022;-94
2021/10/08 04:03:56;;;;;;;3.42;2.90;;;8.90;99.90;;;;;;5020195;28;20038;-93
2021/10/08 04:06:22;;;;;;;3.45;2.85;;;8.90;99.90;;;;;;5020682;28;20037;-93
2021/10/08 04:08:48;;;;;;;4.25;2.70;;;8.80;99.90;;;;;;5021330;28;20025;-94
2021/10/08 04:11:14;;;;;;;3.70;2.70;;;8.70;99.90;;;;;;5020467;28;20554;-94
2021/10/08 04:13:40;;;;;;;3.58;2.80;;;8.60;99.90;;;;;;5020696;28;20025;-93
2021/10/08 04:16:06;;;;;;;3.22;2.90;;;8.60;99.90;;;;;;5020368;28;20021;-95
2021/10/08 04:18:33;;;;;;;3.58;2.65;;;8.50;99.90;;;;;;5022081;28;20500;-94
2021/10/08 04:20:59;;;;;;;4.15;2.88;;;8.40;99.90;;;;;;5022416;28;20021;-95
2021/10/08 04:23:25;;;;;;;3.75;2.60;;;8.40;99.90;;;;;;5021585;28;20032;-94
2021/10/08 04:25:52;;;;;;;4.75;2.50;;;8.80;99.90;;;;;;5021009;28;20033;-93
2021/10/08 04:28:18;;;;;;;5.30;2.60;;;9.00;99.90;;;;;;5019022;28;20026;-94
2021/10/08 04:30:44;;;;;;;5.18;2.55;;;8.80;99.90;;;;;;5019681;28;20041;-95
2021/10/08 04:33:22;;;;;;;3.20;2.22;;;8.60;99.90;;;;;;5020301;28;20028;-93
2021/10/08 04:35:47;;;;;;;7.28;2.80;;;8.40;99.90;;;;;;5019726;28;20036;-93
2021/10/08 04:38:14;;;;;;;6.90;2.80;;;8.20;99.90;;;;;;5020403;28;20022;-93
2021/10/08 04:40:40;;;;;;;6.82;3.13;;;8.10;99.90;;;;;;5020348;28;20091;-93
2021/10/08 04:43:06;;;;;;;4.43;2.75;;;8.30;99.90;;;;;;5023673;28;20025;-93
2021/10/08 04:45:33;;;;;;;6.03;2.90;;;8.30;99.90;;;;;;5026184;28;20056;-95
2021/10/08 04:47:59;;;;;;;3.22;2.17;;;8.20;99.90;;;;;;5029969;28;20025;-93
2021/10/08 04:50:26;;;;;;;6.53;3.00;;;8.30;99.90;;;;;;5036025;28;20124;-94
2021/10/08 04:52:52;;;;;;;3.15;2.40;;;8.40;99.90;;;;;;5034087;28;20392;-94
2021/10/08 04:55:20;;;;;;;7.28;3.35;;;8.30;99.90;;;;;;5023001;28;20139;-94
2021/10/08 04:57:46;;;;;;;3.08;2.00;;;8.40;99.90;;;;;;5021344;28;20033;-94
2021/10/08 05:00:12;;;;;;;3.42;3.10;;;8.40;99.90;;;;;;5020574;28;20029;-94
2021/10/08 05:02:38;;;;;;;5.22;2.30;;;8.40;99.90;;;;;;5019989;28;20026;-94
2021/10/08 05:05:05;;;;;;;6.32;2.88;;;8.50;99.90;;;;;;5019782;28;20489;-95
2021/10/08 05:07:30;;;;;;;4.57;3.20;;;8.40;99.90;;;;;;5019364;28;20489;-95
2021/10/08 05:09:56;;;;;;;6.50;2.88;;;8.20;99.90;;;;;;5018187;28;20037;-94
2021/10/08 05:12:25;;;;;;;5.75;3.30;;;8.20;99.90;;;;;;5017363;28;20033;-94
2021/10/08 05:14:54;;;;;;;6.43;3.13;;;8.10;99.90;;;;;;5038100;28;20033;-94
2021/10/08 05:17:19;;;;;;;5.40;3.20;;;8.10;99.90;;;;;;5007897;28;20060;-94
2021/10/08 05:19:45;;;;;;;8.40;4.43;;;8.10;99.90;;;;;;5026297;28;20041;-94
2021/10/08 05:22:11;;;;;;;7.15;4.10;;;8.10;99.90;;;;;;5025906;28;20021;-94
2021/10/08 05:24:38;;;;;;;7.00;3.53;;;8.10;99.90;;;;;;5026084;28;20080;-94
2021/10/08 05:27:04;;;;;;;5.65;3.67;;;8.10;99.90;;;;;;5025719;28;20120;-94
2021/10/08 05:29:30;;;;;;;4.38;3.95;;;8.10;99.90;;;;;;5025872;28;20022;-94
2021/10/08 05:31:55;;;;;;;5.70;3.67;;;8.00;99.90;;;;;;5028604;28;20048;-94
2021/10/08 05:34:21;;;;;;;4.68;3.70;;;8.00;99.90;;;;;;5026930;28;20207;-94
2021/10/08 05:36:49;;;;;;;7.65;3.45;;;8.00;99.90;;;;;;5025182;28;20033;-93
2021/10/08 05:39:18;;;;;;;5.82;3.75;;;8.00;99.90;;;;;;5026351;28;20075;-93
2021/10/08 05:41:45;;;;;;;5.50;3.83;;;8.00;99.90;;;;;;5025431;28;20029;-95
2021/10/08 05:44:11;;;;;;;5.47;3.03;;;8.10;99.90;;;;;;5026990;28;20017;-95
2021/10/08 05:46:37;;;;;;;4.70;3.50;;;8.10;99.90;;;;;;5026508;28;20489;-94
2021/10/08 05:49:03;;;;;;;4.50;3.72;;;8.20;99.90;;;;;;5026340;28;20025;-94
2021/10/08 05:51:29;;;;;;;3.63;3.20;;;8.20;99.90;;;;;;5027270;28;20025;-94
2021/10/08 05:53:55;;;;;;;3.65;2.97;;;8.20;99.90;;;;;;5026964;28;20049;-95
2021/10/08 05:56:21;;;;;;;3.97;3.15;;;8.30;99.90;;;;;;5026260;28;20393;-94
2021/10/08 05:58:46;;;;;;;3.95;3.25;;;8.20;99.90;;;;;;5044067;28;20081;-94
2021/10/08 06:01:12;;;;;;;6.90;4.28;;;8.20;99.90;;;;;;5026162;28;20022;-95
2021/10/08 06:03:39;;;;;;;9.90;4.90;;;8.20;99.90;;;;;;5024521;28;20025;-93
2021/10/08 06:06:05;;;;;;;6.53;4.95;;;8.10;99.90;;;;;;5023290;28;20053;-94
2021/10/08 06:08:31;;;;;;;5.68;4.40;;;7.90;99.90;;;;;;5023975;28;20037;-95
2021/10/08 06:10:57;;;;;;;7.40;4.88;;;7.80;99.90;;;;;;5023253;28;20156;-93
2021/10/08 06:13:28;;;;;;;6.60;4.38;;;7.90;99.90;;;;;;5022928;28;20061;-94
2021/10/08 06:15:56;;;;;;;5.47;3.88;;;7.80;99.90;;;;;;5023576;28;20029;-94
2021/10/08 06:18:22;;;;;;;5.95;3.92;;;8.00;99.90;;;;;;5024071;28;20036;-93
2021/10/08 06:20:48;;;;;;;5.80;4.22;;;8.10;99.90;;;;;;5025113;28;20025;-94
2021/10/08 06:23:13;;;;;;;8.13;4.72;;;8.30;99.90;;;;;;5025148;28;20017;-94
2021/10/08 06:25:39;;;;;;;8.95;4.25;;;8.30;99.90;;;;;;5025315;28;20030;-95
2021/10/08 06:28:05;;;;;;;6.30;4.63;;;8.30;99.90;;;;;;5025774;28;20052;-95
2021/10/08 06:30:31;;;;;;;7.68;4.25;;;8.30;99.90;;;;;;5025793;28;20030;-93
2021/10/08 06:32:57;;;;;;;6.75;4.82;;;8.20;99.90;;;;;;5025462;28;20149;-94
2021/10/08 06:35:23;;;;;;;8.52;4.30;;;8.20;99.90;;;;;;5026653;28;20068;-93
2021/10/08 06:37:49;;;;;;;8.13;4.90;;;8.30;99.90;;;;;;5028094;28;20026;-93
2021/10/08 06:40:15;;;;;;;6.05;3.28;;;8.50;99.90;;;;;;5026645;28;20381;-93
2021/10/08 06:42:41;;;;;;;7.50;4.57;;;8.80;99.90;;;;;;5026009;28;20025;-94
2021/10/08 06:45:08;;;;;;;8.23;4.55;;;9.20;99.90;;;;;;5026319;28;20022;-94
2021/10/08 06:47:34;;;;;;;9.38;5.15;;;9.30;99.90;;;;;;5024114;28;20476;-94
2021/10/08 06:49:59;;;;;;;5.43;4.10;;;9.40;99.90;;;;;;5021960;28;20117;-94
2021/10/08 06:52:25;;;;;;;7.72;4.55;;;9.40;99.90;;;;;;5022681;28;20021;-94
2021/10/08 06:54:51;;;;;;;10.48;5.05;;;9.50;99.90;;;;;;5019435;28;20050;-94
2021/10/08 06:57:17;;;;;;;8.30;5.00;;;9.60;99.90;;;;;;5024820;28;20140;-94
2021/10/08 06:59:42;;;;;;;9.30;5.28;;;9.40;99.90;;;;;;5029138;28;20033;-92
2021/10/08 07:02:08;;;;;;;9.02;4.82;;;9.50;99.90;;;;;;5032069;28;20026;-94
2021/10/08 07:04:34;;;;;;;8.70;5.25;;;9.70;99.90;;;;;;5031479;28;20080;-93
2021/10/08 07:06:59;;;;;;;7.45;4.88;;;9.80;99.90;;;;;;5030826;28;20058;-92
2021/10/08 07:09:25;;;;;;;6.35;4.93;;;9.80;99.90;;;;;;5017754;28;20478;-93
2021/10/08 07:11:51;;;;;;;7.57;5.28;;;9.80;99.90;;;;;;5016037;28;20026;-92
2021/10/08 07:14:17;;;;;;;9.25;5.53;;;9.90;99.90;;;;;;5015737;28;20022;-93
2021/10/08 07:16:42;;;;;;;9.02;6.07;;;9.90;99.90;;;;;;5015387;28;20477;-94
2021/10/08 07:19:09;;;;;;;7.72;5.55;;;9.90;99.90;;;;;;5017056;28;20018;-93
2021/10/08 07:21:36;;;;;;;9.23;5.68;;;10.00;99.90;;;;;;5016174;28;20478;-92
2021/10/08 07:24:02;;;;;;;7.53;6.10;;;10.10;99.90;;;;;;5014338;28;20026;-93
2021/10/08 07:26:31;;;;;;;17.23;5.97;;;10.30;99.90;;;;;;5014357;28;20030;-94
2021/10/08 07:28:57;;;;;;;14.10;5.72;;;10.40;99.90;;;;;;5014883;28;20535;-92
2021/10/08 07:31:22;;;;;;;11.63;7.28;;;10.60;99.90;;;;;;5014341;28;20034;-93
2021/10/08 07:33:48;;;;;;;12.60;7.65;;;10.80;99.90;;;;;;5014338;28;20053;-93
2021/10/08 07:36:14;;;;;;;16.08;8.20;;;11.00;99.90;;;;;;5014985;28;20105;-92
2021/10/08 07:38:40;;;;;;;10.35;7.40;;;11.10;99.90;;;;;;5013909;28;20037;-93
2021/10/08 07:41:07;;;;;;;12.38;7.30;;;11.30;99.90;;;;;;5013626;28;20474;-92
2021/10/08 07:43:36;;;;;;;11.23;7.28;;;11.60;99.90;;;;;;5014665;28;20022;-93
2021/10/08 07:46:02;;;;;;;10.27;7.20;;;11.50;99.90;;;;;;5015313;28;20032;-93
2021/10/08 07:48:29;;;;;;;8.77;6.70;;;11.40;99.90;;;;;;5014102;28;20061;-92
2021/10/08 07:50:54;;;;;;;12.45;8.38;;;11.50;99.90;;;;;;5013886;28;20034;-93
2021/10/08 07:53:20;;;;;;;10.85;8.05;;;11.50;99.90;;;;;;5014926;28;20032;-93
2021/10/08 07:55:46;;;;;;;14.63;8.05;;;11.50;99.90;;;;;;5017199;28;20033;-91
2021/10/08 07:58:11;;;;;;;11.25;7.88;;;11.70;99.90;;;;;;5017204;28;20225;-92
2021/10/08 08:00:37;;;;;;;10.43;7.43;;;12.00;99.90;;;;;;5017510;28;20022;-92
2021/10/08 08:03:04;;;;;;;18.02;7.03;;;12.00;99.90;;;;;;5017241;28;20018;-92
2021/10/08 08:05:29;;;;;;;11.75;6.32;;;12.30;99.90;;;;;;5017137;28;20029;-92
2021/10/08 08:07:55;;;;;;;10.80;6.10;;;12.50;99.90;;;;;;5017062;28;20131;-93
2021/10/08 08:10:22;;;;;;;7.28;5.40;;;12.70;99.90;;;;;;5016946;28;20029;-93
2021/10/08 08:12:48;;;;;;;14.85;7.00;;;12.90;99.90;;;;;;5017588;28;20030;-91
2021/10/08 08:15:15;;;;;;;8.35;6.65;;;12.80;99.90;;;;;;5016855;28;20060;-92
2021/10/08 08:17:41;;;;;;;12.68;8.05;;;12.80;99.90;;;;;;5016730;28;20026;-93
2021/10/08 08:20:08;;;;;;;12.52;7.22;;;12.90;99.90;;;;;;5017599;28;20025;-92
2021/10/08 08:22:35;;;;;;;11.90;7.10;;;13.10;99.90;;;;;;5016599;28;20026;-93
2021/10/08 08:25:01;;;;;;;10.52;6.18;;;13.20;99.90;;;;;;5016443;28;20026;-92
2021/10/08 08:27:27;;;;;;;13.38;8.13;;;13.50;99.90;;;;;;5016585;28;20053;-93
2021/10/08 08:29:53;;;;;;;9.20;6.80;;;13.50;99.90;;;;;;5016818;28;20025;-93
2021/10/08 08:32:18;;;;;;;10.45;6.15;;;13.60;99.90;;;;;;5016695;28;20056;-92
2021/10/08 08:34:44;;;;;;;9.38;5.35;;;13.90;99.90;;;;;;5034522;28;20071;-93
2021/10/08 08:37:10;;;;;;;9.52;6.47;;;14.00;99.90;;;;;;5016614;28;20108;-91
2021/10/08 08:39:38;;;;;;;7.13;5.70;;;14.00;99.90;;;;;;5016615;28;20018;-93
2021/10/08 08:42:04;;;;;;;9.55;5.90;;;14.00;99.90;;;;;;5016824;28;20124;-92
2021/10/08 08:44:31;;;;;;;13.55;6.30;;;14.00;99.90;;;;;;5016642;28;20029;-93
2021/10/08 08:46:57;;;;;;;8.90;5.13;;;13.80;99.90;;;;;;5016963;28;20448;-92
2021/10/08 08:49:23;;;;;;;8.23;5.43;;;14.10;99.90;;;;;;5016550;28;20026;-92
2021/10/08 08:51:49;;;;;;;9.45;5.32;;;14.10;99.90;;;;;;5033928;28;20029;-92
2021/10/08 08:54:15;;;;;;;7.18;5.35;;;14.00;99.90;;;;;;5018311;28;20048;-91
2021/10/08 08:56:41;;;;;;;9.55;5.35;;;14.20;99.90;;;;;;5020263;28;20112;-92
2021/10/08 08:59:10;;;;;;;10.98;5.90;;;13.90;99.90;;;;;;5020114;28;20472;-93
2021/10/08 09:02:02;;;;;;;12.95;6.00;;;13.60;99.90;;;;;;5020340;28;20433;-93
2021/10/08 09:04:32;;;;;;;9.18;5.20;;;13.50;99.90;;;;;;5019794;28;20049;-93
2021/10/08 09:06:58;;;;;;;9.98;5.88;;;13.60;99.90;;;;;;5020595;28;20493;-92
2021/10/08 09:09:25;;;;;;;9.07;5.90;;;13.70;99.90;;;;;;5020197;28;20116;-93
2021/10/08 09:11:54;;;;;;;7.85;6.22;;;13.70;99.90;;;;;;5027927;28;20158;-92
2021/10/08 09:14:26;;;;;;;10.95;6.70;;;13.70;99.90;;;;;;5048389;28;20029;-92
2021/10/08 09:17:15;;;;;;;9.90;6.28;;;13.80;99.90;;;;;;5033770;28;20036;-92
2021/10/08 09:19:55;;;;;;;9.15;6.38;;;14.00;99.90;;;;;;5038549;28;20041;-93
2021/10/08 09:22:22;;;;;;;11.75;5.80;;;14.00;99.90;;;;;;5027854;28;20424;-93
2021/10/08 09:24:48;;;;;;;9.48;6.22;;;14.10;99.90;;;;;;5021770;28;20036;-92
2021/10/08 09:27:16;;;;;;;11.93;6.05;;;14.10;99.90;;;;;;5020681;28;20090;-91
2021/10/08 09:29:51;;;;;;;14.15;7.35;;;14.00;99.90;;;;;;5037351;28;20481;-92
2021/10/08 09:32:17;;;;;;;11.65;6.13;;;14.00;99.90;;;;;;5020033;28;20033;-93
2021/10/08 09:34:43;;;;;;;10.07;6.45;;;14.00;99.90;;;;;;5019355;28;20029;-91
2021/10/08 09:37:11;;;;;;;9.98;6.65;;;13.90;99.90;;;;;;5019165;28;20075;-92
2021/10/08 09:39:38;;;;;;;10.00;6.03;;;13.90;99.90;;;;;;5019943;28;20469;-92
2021/10/08 09:42:12;;;;;;;10.18;6.15;;;14.00;99.90;;;;;;5020578;28;20437;-93
2021/10/08 09:44:58;;;;;;;;;;;14.10;99.90;;;;;;5019843;28;20563;-92
2021/10/08 09:47:26;;;;;;;10.63;6.43;;;14.00;99.90;;;;;;5018942;28;20396;-92
2021/10/08 09:50:06;;;;;;;8.45;6.57;;;14.10;99.90;;;;;;5019129;28;20507;-92
2021/10/08 09:52:32;;;;;;;9.43;6.55;;;14.00;99.90;;;;;;5019187;28;20021;-93
2021/10/08 09:55:08;;;;;;;16.90;7.07;;;13.90;99.90;;;;;;5018864;28;20506;-94
2021/10/08 09:57:49;;;;;;;8.02;6.47;;;13.90;99.90;;;;;;5019516;28;20408;-92
2021/10/08 10:00:43;;;;;;;11.98;6.32;;;13.90;99.90;;;;;;5019219;28;20021;-93
2021/10/08 10:03:11;;;;;;;12.07;6.95;;;13.90;99.90;;;;;;5018558;28;20095;-93
2021/10/08 10:05:37;;;;;;;7.97;6.18;;;13.90;99.90;;;;;;5036042;28;20036;-93
2021/10/08 10:08:04;;;;;;;10.60;6.90;;;13.90;99.90;;;;;;5018826;28;20035;-93
2021/10/08 10:10:30;;;;;;;12.38;7.38;;;14.00;99.90;;;;;;5018885;28;20026;-92
2021/10/08 10:12:59;;;;;;;12.35;8.27;;;14.00;99.90;;;;;;5018543;28;20031;-92
2021/10/08 10:15:25;;;;;;;17.33;8.43;;;13.90;99.90;;;;;;5018493;28;20021;-93
2021/10/08 10:17:51;;;;;;;11.90;7.22;;;13.90;99.90;;;;;;5018739;28;20095;-92
2021/10/08 10:20:17;;;;;;;10.23;7.75;;;13.90;99.90;;;;;;5018490;28;20052;-93
2021/10/08 10:22:44;;;;;;;14.30;7.07;;;14.00;99.90;;;;;;5018358;28;20080;-93
2021/10/08 10:25:13;;;;;;;11.73;7.82;;;14.10;99.90;;;;;;5018348;28;20033;-92
2021/10/08 10:27:41;;;;;;;16.67;10.10;;;14.00;99.90;;;;;;5018422;28;20034;-91
2021/10/08 10:30:09;;;;;;;9.13;7.03;;;13.90;99.90;;;;;;5018327;28;20095;-92
2021/10/08 10:32:36;;;;;;;11.38;8.02;;;13.80;99.90;;;;;;5018844;28;20048;-92
2021/10/08 10:35:04;;;;;;;16.25;9.43;;;13.70;99.90;;;;;;5018390;28;20036;-92
2021/10/08 10:37:41;;;;;;;10.13;7.90;;;13.70;99.90;;;;;;5018531;28;20032;-93
2021/10/08 10:40:27;;;;;;;15.70;8.95;;;13.70;99.90;;;;;;5002103;28;20473;-93
2021/10/08 10:43:11;;;;;;;14.95;8.45;;;13.80;99.90;;;;;;5017710;28;20033;-92
2021/10/08 10:45:42;;;;;;;13.23;8.43;;;14.00;99.90;;;;;;5018124;28;20064;-92
2021/10/08 10:48:27;;;;;;;12.77;9.68;;;14.00;99.90;;;;;;5017907;28;20057;-93
2021/10/08 10:51:14;;;;;;;8.90;6.90;;;14.40;99.90;;;;;;5017890;28;20091;-92
2021/10/08 10:53:53;;;;;;;16.23;8.00;;;15.00;99.90;;;;;;5018054;28;20045;-93
2021/10/08 10:56:41;;;;;;;9.48;7.20;;;15.30;99.90;;;;;;5017935;28;20412;-91
2021/10/08 10:59:31;;;;;;;12.68;6.85;;;15.80;99.90;;;;;;5017654;28;20022;-92
2021/10/08 11:02:04;;;;;;;9.77;6.85;;;16.10;99.90;;;;;;5005909;28;20026;-91
2021/10/08 11:04:31;;;;;;;12.00;6.80;;;16.70;99.90;;;;;;5017559;28;20037;-92
2021/10/08 11:07:08;;;;;;;11.02;7.60;;;16.70;99.90;;;;;;5017535;28;20025;-92
2021/10/08 11:09:34;;;;;;;11.65;6.80;;;16.50;99.90;;;;;;5018158;28;20026;-92
2021/10/08 11:12:35;;;;;;;10.32;7.10;;;16.10;99.90;;;;;;5017537;28;20029;-91
2021/10/08 11:15:19;;;;;;;14.23;7.90;;;15.60;99.90;;;;;;5017294;28;20024;-91
2021/10/08 11:17:48;;;;;;;11.73;6.95;;;15.30;99.90;;;;;;5016741;28;20048;-92
2021/10/08 11:20:32;;;;;;;11.27;7.85;;;15.00;99.90;;;;;;5017802;28;20033;-90
2021/10/08 11:23:00;;;;;;;16.52;8.00;;;14.90;99.90;;;;;;5017843;28;20366;-90
2021/10/08 11:25:28;;;;;;;29.52;7.65;;;14.80;99.90;;;;;;5022553;28;20033;-91
2021/10/08 11:27:55;;;;;;;11.15;6.97;;;14.80;99.90;;;;;;5026602;28;20029;-90
2021/10/08 11:30:24;;;;;;;11.27;6.65;;;14.60;99.90;;;;;;5030601;28;20032;-92
2021/10/08 11:32:52;;;;;;;13.52;7.43;;;14.60;99.90;;;;;;5038996;28;20044;-92
2021/10/08 11:35:27;;;;;;;13.55;7.10;;;14.70;99.90;;;;;;5031257;28;20052;-92
2021/10/08 11:37:53;;;;;;;11.63;7.53;;;14.70;99.90;;;;;;5018731;28;20083;-93
2021/10/08 11:40:32;;;;;;;11.35;7.20;;;14.60;99.90;;;;;;5018313;28;20026;-91
2021/10/08 11:43:01;;;;;;;11.38;7.35;;;14.60;99.90;;;;;;5018107;28;20108;-91
2021/10/08 11:48:18;;;;;;;12.13;7.68;;;14.40;99.90;;;;;;5035042;28;20072;-91
2021/10/08 11:51:06;;;;;;;15.77;7.43;;;14.50;99.90;;;;;;5017204;28;20030;-91
2021/10/08 11:53:40;;;;;;;14.00;7.50;;;14.30;99.90;;;;;;5033918;28;20037;-91
2021/10/08 11:56:24;;;;;;;12.98;7.55;;;14.40;99.90;;;;;;5017155;28;20021;-91
2021/10/08 11:58:51;;;;;;;8.27;6.22;;;14.20;99.90;;;;;;5016994;28;20026;-91
2021/10/08 12:01:24;;;;;;;11.27;7.55;;;14.10;99.90;;;;;;5017645;28;20022;-90
2021/10/08 12:03:51;;;;;;;8.73;6.72;;;14.30;99.90;;;;;;5016706;28;20018;-91
2021/10/08 12:06:24;;;;;;;13.88;9.38;;;14.30;99.90;;;;;;5034321;28;20038;-91
2021/10/08 12:08:51;;;;;;;10.75;7.22;;;14.20;99.90;;;;;;5016709;28;20524;-91
2021/10/08 12:11:19;;;;;;;9.20;6.65;;;14.20;99.90;;;;;;5017127;28;20112;-91
2021/10/08 12:13:57;;;;;;;12.43;6.80;;;14.10;99.90;;;;;;5016430;28;20074;-91
2021/10/08 12:16:46;;;;;;;10.50;8.20;;;14.10;99.90;;;;;;5016621;28;20408;-91
2021/10/08 12:19:13;;;;;;;12.75;7.10;;;14.10;99.90;;;;;;5016924;28;20022;-91
2021/10/08 12:21:46;;;;;;;12.43;8.02;;;14.10;99.90;;;;;;5017338;28;20029;-91
2021/10/08 12:24:22;;;;;;;14.40;8.10;;;14.10;99.90;;;;;;5017185;28;20052;-92
2021/10/08 12:27:01;;;;;;;11.18;6.75;;;14.20;99.90;;;;;;5017062;28;20478;-92
2021/10/08 12:29:43;;;;;;;12.25;7.95;;;14.30;99.90;;;;;;5021045;28;20030;-92
2021/10/08 12:32:12;;;;;;;16.08;8.38;;;14.30;99.90;;;;;;5020799;28;20030;-91
2021/10/08 12:34:44;;;;;;;11.77;7.53;;;14.40;99.90;;;;;;5020405;28;20025;-91
2021/10/08 12:37:13;;;;;;;10.75;7.15;;;14.50;99.90;;;;;;5020573;28;20033;-90
2021/10/08 12:39:56;;;;;;;11.85;7.28;;;14.50;99.90;;;;;;5037918;28;20072;-92
2021/10/08 12:42:24;;;;;;;14.15;7.38;;;14.60;99.90;;;;;;5037892;28;20028;-92
2021/10/08 12:44:59;;;;;;;14.77;7.50;;;14.70;99.90;;;;;;5020363;28;20523;-91
2021/10/08 12:47:26;;;;;;;12.63;7.30;;;14.50;99.90;;;;;;5020149;28;20029;-90
2021/10/08 12:49:58;;;;;;;14.23;7.63;;;14.40;99.90;;;;;;5020239;28;20030;-91
2021/10/08 12:52:47;;;;;;;14.63;7.00;;;14.40;99.90;;;;;;5019802;28;20069;-91
2021/10/08 12:55:26;;;;;;;13.00;8.07;;;14.50;99.90;;;;;;5019808;28;20430;-92
2021/10/08 12:58:14;;;;;;;15.63;8.18;;;14.40;99.90;;;;;;5020146;28;20017;-91
2021/10/08 13:00:42;;;;;;;17.80;9.50;;;14.40;99.90;;;;;;5020251;28;20382;-92